createdAt,value
2017-03-31T00:00:43.317Z,12.21
2017-03-31T00:01:43.353Z,12.37
2017-03-31T00:02:43.389Z,12.23
2017-03-31T00:03:43.428Z,12.33
2017-03-31T00:04:43.769Z,12.29
2017-03-31T00:05:43.804Z,12.3
2017-03-31T00:06:43.543Z,12.26
2017-03-31T00:07:43.878Z,12.24
2017-03-31T00:08:43.614Z,12.24
2017-03-31T00:09:43.648Z,12.23
2017-03-31T00:10:43.686Z,12.24
2017-03-31T00:11:43.750Z,12.2
2017-03-31T00:12:43.761Z,12.2
2017-03-31T00:13:43.803Z,12.2
2017-03-31T00:14:43.840Z,12.21
2017-03-31T00:15:43.873Z,12.23
2017-03-31T00:16:43.906Z,12.21
2017-03-31T00:17:44.250Z,12.19
2017-03-31T00:18:43.981Z,12.2
2017-03-31T00:19:44.029Z,12.21
2017-03-31T00:20:44.361Z,12.09
2017-03-31T00:21:44.102Z,12.2
2017-03-31T00:22:44.126Z,12.2
2017-03-31T00:23:44.225Z,12.19
2017-03-31T00:24:44.505Z,12.05
2017-03-31T00:25:44.239Z,12.08
2017-03-31T00:26:44.282Z,12.02
2017-03-31T00:27:44.313Z,12.01
2017-03-31T00:28:44.354Z,12.02
2017-03-31T00:29:44.390Z,11.99
2017-03-31T00:30:44.431Z,12.02
2017-03-31T00:31:44.462Z,12.02
2017-03-31T00:32:44.801Z,12.02
2017-03-31T00:33:44.534Z,12.06
2017-03-31T00:34:44.880Z,11.89
2017-03-31T00:35:44.613Z,12.04
2017-03-31T00:36:44.642Z,11.94
2017-03-31T00:37:44.679Z,11.97
2017-03-31T00:38:45.019Z,11.96
2017-03-31T00:39:44.756Z,11.93
2017-03-31T00:40:44.795Z,11.96
2017-03-31T00:41:44.827Z,11.89
2017-03-31T00:42:44.895Z,11.94
2017-03-31T00:43:44.904Z,11.83
2017-03-31T00:44:45.246Z,11.83
2017-03-31T00:45:45.285Z,11.74
2017-03-31T00:46:45.022Z,11.83
2017-03-31T00:47:45.047Z,11.77
2017-03-31T00:48:45.094Z,11.86
2017-03-31T00:49:45.121Z,11.85
2017-03-31T00:50:45.165Z,11.74
2017-03-31T00:51:45.198Z,11.87
2017-03-31T00:52:45.543Z,11.87
2017-03-31T00:53:45.269Z,11.89
2017-03-31T00:54:45.308Z,11.82
2017-03-31T00:55:45.348Z,11.9
2017-03-31T00:56:45.381Z,11.93
2017-03-31T00:57:45.416Z,11.87
2017-03-31T00:58:45.458Z,11.78
2017-03-31T00:59:45.489Z,11.77
2017-03-31T01:00:45.540Z,11.82
2017-03-31T01:01:45.565Z,11.85
2017-03-31T01:02:45.600Z,11.78
2017-03-31T01:03:45.635Z,11.82
2017-03-31T01:04:45.674Z,11.83
2017-03-31T01:05:45.711Z,11.85
2017-03-31T01:06:45.748Z,11.77
2017-03-31T01:07:45.781Z,11.72
2017-03-31T01:08:45.821Z,11.77
2017-03-31T01:09:45.853Z,11.68
2017-03-31T01:10:46.197Z,11.78
2017-03-31T01:11:45.934Z,11.64
2017-03-31T01:12:45.972Z,11.74
2017-03-31T01:13:46.005Z,11.71
2017-03-31T01:14:46.044Z,11.71
2017-03-31T01:15:46.076Z,11.68
2017-03-31T01:16:46.115Z,11.7
2017-03-31T01:17:46.148Z,11.7
2017-03-31T01:18:46.190Z,11.65
2017-03-31T01:19:46.221Z,11.68
2017-03-31T01:20:46.566Z,11.72
2017-03-31T01:21:46.595Z,11.67
2017-03-31T01:22:46.335Z,11.64
2017-03-31T01:23:46.368Z,11.64
2017-03-31T01:24:46.405Z,11.56
2017-03-31T01:25:46.446Z,11.62
2017-03-31T01:26:46.481Z,11.59
2017-03-31T01:27:46.516Z,11.59
2017-03-31T01:28:46.552Z,11.57
2017-03-31T01:29:46.667Z,11.47
2017-03-31T01:30:46.621Z,11.47
2017-03-31T01:31:46.674Z,11.52
2017-03-31T01:32:46.694Z,11.49
2017-03-31T01:33:46.746Z,11.53
2017-03-31T01:34:46.769Z,11.47
2017-03-31T01:35:46.811Z,11.46
2017-03-31T01:36:47.144Z,11.49
2017-03-31T01:37:46.884Z,11.47
2017-03-31T01:38:46.916Z,11.39
2017-03-31T01:39:47.262Z,11.44
2017-03-31T01:40:47.027Z,11.43
2017-03-31T01:41:47.026Z,11.43
2017-03-31T01:42:47.118Z,11.43
2017-03-31T01:43:47.098Z,11.36
2017-03-31T01:44:47.436Z,11.39
2017-03-31T01:45:47.176Z,11.39
2017-03-31T01:46:47.513Z,11.35
2017-03-31T01:47:47.246Z,11.44
2017-03-31T01:48:47.278Z,11.38
2017-03-31T01:49:47.322Z,11.5
2017-03-31T01:50:47.353Z,11.36
2017-03-31T01:51:47.393Z,11.34
2017-03-31T01:52:47.430Z,11.39
2017-03-31T01:53:47.496Z,11.43
2017-03-31T01:54:47.503Z,11.43
2017-03-31T01:55:47.835Z,11.34
2017-03-31T01:56:47.576Z,11.36
2017-03-31T01:57:47.916Z,11.32
2017-03-31T01:58:47.645Z,11.44
2017-03-31T01:59:47.994Z,11.24
2017-03-31T02:00:47.723Z,11.35
2017-03-31T02:01:48.059Z,11.32
2017-03-31T02:02:47.793Z,11.28
2017-03-31T02:03:48.132Z,11.36
2017-03-31T02:04:48.162Z,11.32
2017-03-31T02:05:47.909Z,11.29
2017-03-31T02:06:47.942Z,11.34
2017-03-31T02:07:47.972Z,11.28
2017-03-31T02:08:48.011Z,11.21
2017-03-31T02:09:48.045Z,11.21
2017-03-31T02:10:48.083Z,11.21
2017-03-31T02:11:48.121Z,11.27
2017-03-31T02:12:48.157Z,11.25
2017-03-31T02:13:48.193Z,11.28
2017-03-31T02:14:48.227Z,11.2
2017-03-31T02:15:48.264Z,11.29
2017-03-31T02:16:48.304Z,11.13
2017-03-31T02:17:48.335Z,11.11
2017-03-31T02:18:48.675Z,11.17
2017-03-31T02:19:48.412Z,11.14
2017-03-31T02:20:48.454Z,11.24
2017-03-31T02:21:48.485Z,11.21
2017-03-31T02:22:48.515Z,11.13
2017-03-31T02:23:48.855Z,11.13
2017-03-31T02:24:48.602Z,11.21
2017-03-31T02:25:48.629Z,11.16
2017-03-31T02:26:48.665Z,11.16
2017-03-31T02:27:48.701Z,11.16
2017-03-31T02:28:48.736Z,11.13
2017-03-31T02:29:48.773Z,11.13
2017-03-31T02:30:48.809Z,11.2
2017-03-31T02:31:48.847Z,11.09
2017-03-31T02:32:49.191Z,11.09
2017-03-31T02:33:48.924Z,11.07
2017-03-31T02:34:48.955Z,11.1
2017-03-31T02:35:48.988Z,10.99
2017-03-31T02:36:49.030Z,11.09
2017-03-31T02:37:49.367Z,11.01
2017-03-31T02:38:49.098Z,10.98
2017-03-31T02:39:49.144Z,11.07
2017-03-31T02:40:49.184Z,10.96
2017-03-31T02:41:49.210Z,11.07
2017-03-31T02:42:49.240Z,11.01
2017-03-31T02:43:49.275Z,11.03
2017-03-31T02:44:49.316Z,11.06
2017-03-31T02:45:49.352Z,10.99
2017-03-31T02:46:49.386Z,10.91
2017-03-31T02:47:49.463Z,10.94
2017-03-31T02:48:49.469Z,10.83
2017-03-31T02:49:49.495Z,11.02
2017-03-31T02:50:49.536Z,10.88
2017-03-31T02:51:49.572Z,10.98
2017-03-31T02:52:49.606Z,10.98
2017-03-31T02:53:49.645Z,10.96
2017-03-31T02:54:49.678Z,10.89
2017-03-31T02:55:49.715Z,10.86
2017-03-31T02:56:49.747Z,10.92
2017-03-31T02:57:49.791Z,10.92
2017-03-31T02:58:49.830Z,10.92
2017-03-31T02:59:49.856Z,10.86
2017-03-31T03:00:49.894Z,10.83
2017-03-31T03:01:49.928Z,10.88
2017-03-31T03:02:50.007Z,10.86
2017-03-31T03:03:50.003Z,10.81
2017-03-31T03:04:50.037Z,10.76
2017-03-31T03:05:50.375Z,10.81
2017-03-31T03:06:50.144Z,10.81
2017-03-31T03:07:50.150Z,10.76
2017-03-31T03:08:50.215Z,10.86
2017-03-31T03:09:50.220Z,10.86
2017-03-31T03:10:50.258Z,10.86
2017-03-31T03:11:50.292Z,10.84
2017-03-31T03:12:50.632Z,10.78
2017-03-31T03:13:50.361Z,10.81
2017-03-31T03:14:50.399Z,10.65
2017-03-31T03:15:50.438Z,10.74
2017-03-31T03:16:50.472Z,10.73
2017-03-31T03:17:50.512Z,10.73
2017-03-31T03:18:50.543Z,10.71
2017-03-31T03:19:50.586Z,10.7
2017-03-31T03:20:50.654Z,10.71
2017-03-31T03:21:50.655Z,10.68
2017-03-31T03:22:50.689Z,10.71
2017-03-31T03:23:51.029Z,10.71
2017-03-31T03:24:50.761Z,10.76
2017-03-31T03:25:50.803Z,10.71
2017-03-31T03:26:50.833Z,10.73
2017-03-31T03:27:50.870Z,10.74
2017-03-31T03:28:50.900Z,10.68
2017-03-31T03:29:50.945Z,10.68
2017-03-31T03:30:50.977Z,10.66
2017-03-31T03:31:51.014Z,10.7
2017-03-31T03:32:51.046Z,10.73
2017-03-31T03:33:51.081Z,10.7
2017-03-31T03:34:51.120Z,10.76
2017-03-31T03:35:51.155Z,10.77
2017-03-31T03:36:51.191Z,10.66
2017-03-31T03:37:51.231Z,10.7
2017-03-31T03:38:51.262Z,10.68
2017-03-31T03:39:51.303Z,10.76
2017-03-31T03:40:51.342Z,10.65
2017-03-31T03:41:51.373Z,10.74
2017-03-31T03:42:51.407Z,10.7
2017-03-31T03:43:51.443Z,10.7
2017-03-31T03:44:51.486Z,10.66
2017-03-31T03:45:51.515Z,10.76
2017-03-31T03:46:51.552Z,10.73
2017-03-31T03:47:51.590Z,10.66
2017-03-31T03:48:51.623Z,10.7
2017-03-31T03:49:51.658Z,10.71
2017-03-31T03:50:51.697Z,10.71
2017-03-31T03:51:52.038Z,10.63
2017-03-31T03:52:51.767Z,10.71
2017-03-31T03:53:51.802Z,10.73
2017-03-31T03:54:51.841Z,10.56
2017-03-31T03:55:52.177Z,10.62
2017-03-31T03:56:51.915Z,10.53
2017-03-31T03:57:51.954Z,10.56
2017-03-31T03:58:51.984Z,10.52
2017-03-31T03:59:52.020Z,10.6
2017-03-31T04:00:52.057Z,10.56
2017-03-31T04:01:52.090Z,10.55
2017-03-31T04:02:52.133Z,10.47
2017-03-31T04:03:52.164Z,10.55
2017-03-31T04:04:52.202Z,10.53
2017-03-31T04:05:52.232Z,10.55
2017-03-31T04:06:52.269Z,10.51
2017-03-31T04:07:52.610Z,10.42
2017-03-31T04:08:52.347Z,10.47
2017-03-31T04:09:52.436Z,10.46
2017-03-31T04:10:52.419Z,10.52
2017-03-31T04:11:52.762Z,10.46
2017-03-31T04:12:52.488Z,10.51
2017-03-31T04:13:52.825Z,10.47
2017-03-31T04:14:52.561Z,10.53
2017-03-31T04:15:52.601Z,10.47
2017-03-31T04:16:52.940Z,10.52
2017-03-31T04:17:52.663Z,10.47
2017-03-31T04:18:52.713Z,10.47
2017-03-31T04:19:52.736Z,10.47
2017-03-31T04:20:52.774Z,10.55
2017-03-31T04:21:53.115Z,10.52
2017-03-31T04:22:52.850Z,10.55
2017-03-31T04:23:52.881Z,10.53
2017-03-31T04:24:52.917Z,10.46
2017-03-31T04:25:52.953Z,10.53
2017-03-31T04:26:52.990Z,10.56
2017-03-31T04:27:53.026Z,10.51
2017-03-31T04:28:53.066Z,10.47
2017-03-31T04:29:53.098Z,10.53
2017-03-31T04:30:53.131Z,10.51
2017-03-31T04:31:53.167Z,10.46
2017-03-31T04:32:53.204Z,10.46
2017-03-31T04:33:53.541Z,10.56
2017-03-31T04:34:53.276Z,10.52
2017-03-31T04:35:53.315Z,10.52
2017-03-31T04:36:53.354Z,10.55
2017-03-31T04:37:53.383Z,10.53
2017-03-31T04:38:53.421Z,10.52
2017-03-31T04:39:53.456Z,10.56
2017-03-31T04:40:53.492Z,10.55
2017-03-31T04:41:53.522Z,10.55
2017-03-31T04:42:53.564Z,10.51
2017-03-31T04:43:53.594Z,10.47
2017-03-31T04:44:53.634Z,10.47
2017-03-31T04:45:53.670Z,10.55
2017-03-31T04:46:53.708Z,10.46
2017-03-31T04:47:53.740Z,10.51
2017-03-31T04:48:53.775Z,10.47
2017-03-31T04:49:53.811Z,10.52
2017-03-31T04:50:53.847Z,10.52
2017-03-31T04:51:53.885Z,10.51
2017-03-31T04:52:53.919Z,10.47
2017-03-31T04:53:53.955Z,10.47
2017-03-31T04:54:53.992Z,10.53
2017-03-31T04:55:54.026Z,10.53
2017-03-31T04:56:54.062Z,10.55
2017-03-31T04:57:54.403Z,10.56
2017-03-31T04:58:54.149Z,10.62
2017-03-31T04:59:54.171Z,10.52
2017-03-31T05:00:54.511Z,10.6
2017-03-31T05:01:54.272Z,10.62
2017-03-31T05:02:54.312Z,10.68
2017-03-31T05:03:54.323Z,10.65
2017-03-31T05:04:54.347Z,10.73
2017-03-31T05:05:54.387Z,10.73
2017-03-31T05:06:54.430Z,10.73
2017-03-31T05:07:54.482Z,10.73
2017-03-31T05:08:54.501Z,10.74
2017-03-31T05:09:54.535Z,10.86
2017-03-31T05:10:54.570Z,10.81
2017-03-31T05:11:54.601Z,10.84
2017-03-31T05:12:54.636Z,10.78
2017-03-31T05:13:54.677Z,10.83
2017-03-31T05:14:54.709Z,10.89
2017-03-31T05:15:54.750Z,10.88
2017-03-31T05:16:54.786Z,10.86
2017-03-31T05:17:54.820Z,10.94
2017-03-31T05:18:55.161Z,10.91
2017-03-31T05:19:54.891Z,11.02
2017-03-31T05:20:54.936Z,11.03
2017-03-31T05:21:55.271Z,10.98
2017-03-31T05:22:55.000Z,11.11
2017-03-31T05:23:55.039Z,11.11
2017-03-31T05:24:55.074Z,11.14
2017-03-31T05:25:55.109Z,11.14
2017-03-31T05:26:55.146Z,11.17
2017-03-31T05:27:55.179Z,11.21
2017-03-31T05:28:55.218Z,11.24
2017-03-31T05:29:55.251Z,11.32
2017-03-31T05:30:55.295Z,11.24
2017-03-31T05:31:55.654Z,11.34
2017-03-31T05:32:55.365Z,11.29
2017-03-31T05:33:55.401Z,11.35
2017-03-31T05:34:55.435Z,11.36
2017-03-31T05:35:55.469Z,11.39
2017-03-31T05:36:55.809Z,11.39
2017-03-31T05:37:55.543Z,11.44
2017-03-31T05:38:55.579Z,11.41
2017-03-31T05:39:55.614Z,11.47
2017-03-31T05:40:55.657Z,11.5
2017-03-31T05:41:55.687Z,11.53
2017-03-31T05:42:55.731Z,11.68
2017-03-31T05:43:55.763Z,11.7
2017-03-31T05:44:55.800Z,11.68
2017-03-31T05:45:55.844Z,11.71
2017-03-31T05:46:55.872Z,11.7
2017-03-31T05:47:55.918Z,11.77
2017-03-31T05:48:55.953Z,11.8
2017-03-31T05:49:55.990Z,11.85
2017-03-31T05:50:56.326Z,11.89
2017-03-31T05:51:56.062Z,11.97
2017-03-31T05:52:56.141Z,11.97
2017-03-31T05:53:56.137Z,12.08
2017-03-31T05:54:56.546Z,12.33
2017-03-31T05:55:56.212Z,12.69
2017-03-31T05:56:56.240Z,13.14
2017-03-31T05:57:56.280Z,13.59
2017-03-31T05:58:56.361Z,14.2
2017-03-31T05:59:56.660Z,14.69
2017-03-31T06:00:56.699Z,15.21
2017-03-31T06:01:56.732Z,15.86
2017-03-31T06:02:56.767Z,16.34
2017-03-31T06:03:56.806Z,16.95
2017-03-31T06:04:56.544Z,17.51
2017-03-31T06:05:56.584Z,18.06
2017-03-31T06:06:56.621Z,18.47
2017-03-31T06:07:56.673Z,18.99
2017-03-31T06:08:56.704Z,19.46
2017-03-31T06:09:57.045Z,19.79
2017-03-31T06:10:56.787Z,20.31
2017-03-31T06:11:56.825Z,20.74
2017-03-31T06:12:56.862Z,21.08
2017-03-31T06:13:57.206Z,21.39
2017-03-31T06:14:57.288Z,21.75
2017-03-31T06:15:57.338Z,22.04
2017-03-31T06:16:57.329Z,22.31
2017-03-31T06:17:57.373Z,22.59
2017-03-31T06:18:57.105Z,22.59
2017-03-31T06:19:57.166Z,22.78
2017-03-31T06:20:57.190Z,22.87
2017-03-31T06:21:57.236Z,23.15
2017-03-31T06:22:57.283Z,23.34
2017-03-31T06:23:57.327Z,23.53
2017-03-31T06:24:57.360Z,23.76
2017-03-31T06:25:57.403Z,23.85
2017-03-31T06:26:57.456Z,23.9
2017-03-31T06:27:57.490Z,24.14
2017-03-31T06:28:57.533Z,24.27
2017-03-31T06:29:57.885Z,24.42
2017-03-31T06:30:57.932Z,24.56
2017-03-31T06:31:57.663Z,24.67
2017-03-31T06:32:58.006Z,24.76
2017-03-31T06:33:57.761Z,24.71
2017-03-31T06:34:57.793Z,24.5
2017-03-31T06:35:57.837Z,24.35
2017-03-31T06:36:58.180Z,24.41
2017-03-31T06:37:58.234Z,24.52
2017-03-31T06:38:57.979Z,24.76
2017-03-31T06:39:58.016Z,24.83
2017-03-31T06:40:58.061Z,24.92
2017-03-31T06:41:58.105Z,25.13
2017-03-31T06:42:58.459Z,25.24
2017-03-31T06:43:58.506Z,25.37
2017-03-31T06:44:58.556Z,25.43
2017-03-31T06:45:58.597Z,25.44
2017-03-31T06:46:58.678Z,25.57
2017-03-31T06:47:58.380Z,25.86
2017-03-31T06:48:58.421Z,26.11
2017-03-31T06:49:58.468Z,26.24
2017-03-31T06:50:58.514Z,26.44
2017-03-31T06:51:58.555Z,26.55
2017-03-31T06:52:58.605Z,26.64
2017-03-31T06:53:58.653Z,26.73
2017-03-31T06:54:58.695Z,26.91
2017-03-31T06:55:58.747Z,26.89
2017-03-31T06:56:58.792Z,27.02
2017-03-31T06:57:58.839Z,27.09
2017-03-31T06:58:58.882Z,27.43
2017-03-31T06:59:58.932Z,27.46
2017-03-31T07:00:58.978Z,27.42
2017-03-31T07:01:59.025Z,27.54
2017-03-31T07:02:59.067Z,27.5
2017-03-31T07:03:59.441Z,27.66
2017-03-31T07:04:59.230Z,27.8
2017-03-31T07:05:59.537Z,28.03
2017-03-31T07:06:59.510Z,28.09
2017-03-31T07:07:59.305Z,28.25
2017-03-31T07:08:59.353Z,28.36
2017-03-31T07:09:59.400Z,28.5
2017-03-31T07:10:59.446Z,28.68
2017-03-31T07:11:59.502Z,28.73
2017-03-31T07:12:59.546Z,29
2017-03-31T07:13:59.600Z,29.16
2017-03-31T07:14:59.980Z,29.38
2017-03-31T07:15:59.687Z,29.6
2017-03-31T07:16:59.736Z,29.74
2017-03-31T07:17:59.787Z,29.86
2017-03-31T07:18:59.837Z,30.03
2017-03-31T07:19:59.882Z,30.09
2017-03-31T07:21:00.238Z,30.29
2017-03-31T07:21:59.977Z,30.33
2017-03-31T07:23:00.034Z,30.46
2017-03-31T07:24:00.076Z,30.49
2017-03-31T07:25:00.131Z,30.62
2017-03-31T07:26:00.504Z,30.68
2017-03-31T07:27:00.546Z,30.75
2017-03-31T07:28:00.584Z,30.84
2017-03-31T07:29:00.622Z,30.96
2017-03-31T07:30:00.368Z,31.05
2017-03-31T07:31:02.362Z,31.18
2017-03-31T07:32:00.465Z,31.18
2017-03-31T07:33:00.554Z,31.3
2017-03-31T07:34:00.597Z,31.4
2017-03-31T07:35:00.919Z,31.61
2017-03-31T07:36:00.967Z,31.61
2017-03-31T07:37:00.717Z,31.84
2017-03-31T07:38:00.770Z,31.96
2017-03-31T07:39:00.820Z,31.99
2017-03-31T07:40:00.869Z,32.05
2017-03-31T07:41:00.920Z,31.98
2017-03-31T07:42:00.967Z,32
2017-03-31T07:43:01.322Z,32.03
2017-03-31T07:44:01.071Z,32.02
2017-03-31T07:45:01.121Z,32.2
2017-03-31T07:46:01.473Z,32.29
2017-03-31T07:47:01.221Z,32.36
2017-03-31T07:48:01.271Z,32.43
2017-03-31T07:49:01.317Z,32.47
2017-03-31T07:50:01.370Z,32.52
2017-03-31T07:51:01.420Z,32.54
2017-03-31T07:52:01.471Z,32.57
2017-03-31T07:53:01.521Z,32.64
2017-03-31T07:54:01.576Z,32.61
2017-03-31T07:55:01.624Z,32.71
2017-03-31T07:56:01.674Z,32.67
2017-03-31T07:57:01.727Z,32.66
2017-03-31T07:58:01.780Z,32.62
2017-03-31T07:59:01.828Z,32.62
2017-03-31T08:00:01.879Z,32.7
2017-03-31T08:01:01.934Z,32.76
2017-03-31T08:02:01.979Z,32.91
2017-03-31T08:03:02.027Z,33.01
2017-03-31T08:04:02.082Z,33.04
2017-03-31T08:05:02.135Z,33.2
2017-03-31T08:06:02.486Z,33.36
2017-03-31T08:07:02.238Z,33.39
2017-03-31T08:08:02.295Z,33.31
2017-03-31T08:09:02.339Z,33.43
2017-03-31T08:10:02.391Z,33.49
2017-03-31T08:11:02.441Z,33.57
2017-03-31T08:12:02.494Z,33.57
2017-03-31T08:13:02.545Z,33.55
2017-03-31T08:14:02.598Z,33.52
2017-03-31T08:15:02.671Z,33.57
2017-03-31T08:16:02.706Z,33.49
2017-03-31T08:17:02.753Z,33.27
2017-03-31T08:18:02.803Z,33.36
2017-03-31T08:19:02.868Z,33.29
2017-03-31T08:20:03.213Z,33.34
2017-03-31T08:21:02.961Z,33.29
2017-03-31T08:22:03.014Z,33.29
2017-03-31T08:23:03.062Z,33.33
2017-03-31T08:24:03.124Z,33.33
2017-03-31T08:25:03.181Z,33.36
2017-03-31T08:26:03.220Z,33.41
2017-03-31T08:27:03.281Z,33.39
2017-03-31T08:28:03.329Z,33.6
2017-03-31T08:29:03.388Z,33.65
2017-03-31T08:30:03.435Z,33.79
2017-03-31T08:31:03.483Z,34
2017-03-31T08:32:03.838Z,34.11
2017-03-31T08:33:03.589Z,34.13
2017-03-31T08:34:03.652Z,34.07
2017-03-31T08:35:03.700Z,34.17
2017-03-31T08:36:03.748Z,34.23
2017-03-31T08:37:03.799Z,34.31
2017-03-31T08:38:03.850Z,34.34
2017-03-31T08:39:03.907Z,34.39
2017-03-31T08:40:03.957Z,34.36
2017-03-31T08:41:04.011Z,34.22
2017-03-31T08:42:04.065Z,34.2
2017-03-31T08:43:04.417Z,34.16
2017-03-31T08:44:04.171Z,34.09
2017-03-31T08:45:04.224Z,34.07
2017-03-31T08:46:04.283Z,34.17
2017-03-31T08:47:04.332Z,34.22
2017-03-31T08:48:04.382Z,34.14
2017-03-31T08:49:04.741Z,34.24
2017-03-31T08:50:04.493Z,34.32
2017-03-31T08:51:04.545Z,34.38
2017-03-31T08:52:04.602Z,34.34
2017-03-31T08:53:04.652Z,34.23
2017-03-31T08:54:05.040Z,34.22
2017-03-31T08:55:04.760Z,34.31
2017-03-31T08:56:04.840Z,34.29
2017-03-31T08:57:04.877Z,34.23
2017-03-31T08:58:04.930Z,34.13
2017-03-31T08:59:04.981Z,34.13
2017-03-31T09:00:05.335Z,34.04
2017-03-31T09:01:05.109Z,33.97
2017-03-31T09:02:05.146Z,34.04
2017-03-31T09:03:05.191Z,33.98
2017-03-31T09:04:05.250Z,33.97
2017-03-31T09:05:05.608Z,34
2017-03-31T09:06:05.360Z,33.9
2017-03-31T09:07:05.573Z,33.92
2017-03-31T09:08:05.472Z,33.95
2017-03-31T09:09:05.703Z,33.92
2017-03-31T09:10:05.575Z,34
2017-03-31T09:11:05.635Z,34
2017-03-31T09:12:05.682Z,34.01
2017-03-31T09:13:05.747Z,34.05
2017-03-31T09:14:05.795Z,34.05
2017-03-31T09:15:05.851Z,34.01
2017-03-31T09:16:05.902Z,33.74
2017-03-31T09:17:05.961Z,33.3
2017-03-31T09:18:06.014Z,32.61
2017-03-31T09:19:06.072Z,31.93
2017-03-31T09:20:06.129Z,31.8
2017-03-31T09:21:06.181Z,31.75
2017-03-31T09:22:06.239Z,31.87
2017-03-31T09:23:06.290Z,31.98
2017-03-31T09:24:06.649Z,32.03
2017-03-31T09:25:06.709Z,32.13
2017-03-31T09:26:06.458Z,32.36
2017-03-31T09:27:06.566Z,32.4
2017-03-31T09:28:06.571Z,32.52
2017-03-31T09:29:06.625Z,32.3
2017-03-31T09:30:06.683Z,31.85
2017-03-31T09:31:06.740Z,31.48
2017-03-31T09:32:06.799Z,31.11
2017-03-31T09:33:06.855Z,30.91
2017-03-31T09:34:06.906Z,30.68
2017-03-31T09:35:06.975Z,30.3
2017-03-31T09:36:07.018Z,29.89
2017-03-31T09:37:07.075Z,29.52
2017-03-31T09:38:07.127Z,29.2
2017-03-31T09:39:07.485Z,28.88
2017-03-31T09:40:07.243Z,28.65
2017-03-31T09:41:07.298Z,28.56
2017-03-31T09:42:07.355Z,28.66
2017-03-31T09:43:07.410Z,28.9
2017-03-31T09:44:07.482Z,29.11
2017-03-31T09:45:07.520Z,29.41
2017-03-31T09:46:07.602Z,29.52
2017-03-31T09:47:07.632Z,29.47
2017-03-31T09:48:07.693Z,29.4
2017-03-31T09:49:08.048Z,29.23
2017-03-31T09:50:07.802Z,29.18
2017-03-31T09:51:08.159Z,29.25
2017-03-31T09:52:07.917Z,29.44
2017-03-31T09:53:08.272Z,29.6
2017-03-31T09:54:08.033Z,29.9
2017-03-31T09:55:08.080Z,30.03
2017-03-31T09:56:08.146Z,29.93
2017-03-31T09:57:08.208Z,30.08
2017-03-31T09:58:08.249Z,30.16
2017-03-31T09:59:08.307Z,30.3
2017-03-31T10:00:08.671Z,30.36
2017-03-31T10:01:08.426Z,30.45
2017-03-31T10:02:08.478Z,30.56
2017-03-31T10:03:08.835Z,30.67
2017-03-31T10:04:08.593Z,30.59
2017-03-31T10:05:08.654Z,30.19
2017-03-31T10:06:08.709Z,29.93
2017-03-31T10:07:08.764Z,29.7
2017-03-31T10:08:08.821Z,29.74
2017-03-31T10:09:08.985Z,29.71
2017-03-31T10:10:08.998Z,29.82
2017-03-31T10:11:09.020Z,29.93
2017-03-31T10:12:09.126Z,30.02
2017-03-31T10:13:09.119Z,30.09
2017-03-31T10:14:09.187Z,30.19
2017-03-31T10:15:09.259Z,30.18
2017-03-31T10:16:09.444Z,30.19
2017-03-31T10:17:09.374Z,30.36
2017-03-31T10:18:09.425Z,30.37
2017-03-31T10:19:09.476Z,30.46
2017-03-31T10:20:09.538Z,30.36
2017-03-31T10:21:09.578Z,30.43
2017-03-31T10:22:09.654Z,30.46
2017-03-31T10:23:09.691Z,30.47
2017-03-31T10:24:09.764Z,30.4
2017-03-31T10:25:09.846Z,30.47
2017-03-31T10:26:10.170Z,30.4
2017-03-31T10:27:09.928Z,30.36
2017-03-31T10:28:09.985Z,30.38
2017-03-31T10:29:10.045Z,30.36
2017-03-31T10:30:10.110Z,30.4
2017-03-31T10:31:10.158Z,30.45
2017-03-31T10:32:10.219Z,30.38
2017-03-31T10:33:10.281Z,30.43
2017-03-31T10:34:10.343Z,30.38
2017-03-31T10:35:10.706Z,30.45
2017-03-31T10:36:10.462Z,30.43
2017-03-31T10:37:10.511Z,30.33
2017-03-31T10:38:10.572Z,30.24
2017-03-31T10:39:10.659Z,30.07
2017-03-31T10:40:10.993Z,29.92
2017-03-31T10:41:10.757Z,29.9
2017-03-31T10:42:10.848Z,29.82
2017-03-31T10:43:10.874Z,29.7
2017-03-31T10:44:10.923Z,29.62
2017-03-31T10:45:10.982Z,29.5
2017-03-31T10:46:11.041Z,29.4
2017-03-31T10:47:11.104Z,29.29
2017-03-31T10:48:11.165Z,29.19
2017-03-31T10:49:11.522Z,29.16
2017-03-31T10:50:11.281Z,29.29
2017-03-31T10:51:11.637Z,29.29
2017-03-31T10:52:11.398Z,29.25
2017-03-31T10:53:11.459Z,29.33
2017-03-31T10:54:11.506Z,29.31
2017-03-31T10:55:11.565Z,29.31
2017-03-31T10:56:11.939Z,29.22
2017-03-31T10:57:11.720Z,29.15
2017-03-31T10:58:11.741Z,29.04
2017-03-31T10:59:11.800Z,28.88
2017-03-31T11:00:11.917Z,28.66
2017-03-31T11:01:11.917Z,28.46
2017-03-31T11:02:12.280Z,28.4
2017-03-31T11:03:12.028Z,28.33
2017-03-31T11:04:12.089Z,28.36
2017-03-31T11:05:12.178Z,28.43
2017-03-31T11:06:12.206Z,28.33
2017-03-31T11:07:12.559Z,28.32
2017-03-31T11:08:12.317Z,28.22
2017-03-31T11:09:12.371Z,28.26
2017-03-31T11:10:12.437Z,28.11
2017-03-31T11:11:12.898Z,28.01
2017-03-31T11:12:12.544Z,28.11
2017-03-31T11:13:12.724Z,27.99
2017-03-31T11:14:12.655Z,27.86
2017-03-31T11:15:12.716Z,27.85
2017-03-31T11:16:12.772Z,27.8
2017-03-31T11:17:12.822Z,27.67
2017-03-31T11:18:12.882Z,27.66
2017-03-31T11:19:12.932Z,27.5
2017-03-31T11:20:13.027Z,27.46
2017-03-31T11:21:13.042Z,27.48
2017-03-31T11:22:13.397Z,27.36
2017-03-31T11:23:13.151Z,27.28
2017-03-31T11:24:13.206Z,27.17
2017-03-31T11:25:13.254Z,27.33
2017-03-31T11:26:13.306Z,27.21
2017-03-31T11:27:13.369Z,27.2
2017-03-31T11:28:13.444Z,27.17
2017-03-31T11:29:13.466Z,27.1
2017-03-31T11:30:13.526Z,27.09
2017-03-31T11:31:13.573Z,27.14
2017-03-31T11:32:13.625Z,27.06
2017-03-31T11:33:13.676Z,27.06
2017-03-31T11:34:13.732Z,27.09
2017-03-31T11:35:13.783Z,27.1
2017-03-31T11:36:14.132Z,27.09
2017-03-31T11:37:13.920Z,26.95
2017-03-31T11:38:13.928Z,27.04
2017-03-31T11:39:13.991Z,27.06
2017-03-31T11:40:14.037Z,27.01
2017-03-31T11:41:14.117Z,26.92
2017-03-31T11:42:14.142Z,26.94
2017-03-31T11:43:14.499Z,26.84
2017-03-31T11:44:14.538Z,27.01
2017-03-31T11:45:14.290Z,26.96
2017-03-31T11:46:14.346Z,27.05
2017-03-31T11:47:14.690Z,26.96
2017-03-31T11:48:14.435Z,26.92
2017-03-31T11:49:14.483Z,26.86
2017-03-31T11:50:14.531Z,26.84
2017-03-31T11:51:14.599Z,26.81
2017-03-31T11:52:14.646Z,26.69
2017-03-31T11:53:14.681Z,26.67
2017-03-31T11:54:14.729Z,26.72
2017-03-31T11:55:14.782Z,26.57
2017-03-31T11:56:15.364Z,26.62
2017-03-31T11:57:15.481Z,26.43
2017-03-31T11:58:14.930Z,26.44
2017-03-31T11:59:14.973Z,26.42
2017-03-31T12:00:15.054Z,26.4
2017-03-31T12:01:15.374Z,26.36
2017-03-31T12:02:15.133Z,26.28
2017-03-31T12:03:15.164Z,26.29
2017-03-31T12:04:15.211Z,26.24
2017-03-31T12:05:15.261Z,26.31
2017-03-31T12:06:15.310Z,26.2
2017-03-31T12:07:15.351Z,26.09
2017-03-31T12:08:15.400Z,26.22
2017-03-31T12:09:15.744Z,26.12
2017-03-31T12:10:15.868Z,26.09
2017-03-31T12:11:15.546Z,26.02
2017-03-31T12:12:15.593Z,26.06
2017-03-31T12:13:15.947Z,26.08
2017-03-31T12:14:15.682Z,25.97
2017-03-31T12:15:15.734Z,26.01
2017-03-31T12:16:15.776Z,26.01
2017-03-31T12:17:15.827Z,26.08
2017-03-31T12:18:15.900Z,25.97
2017-03-31T12:19:15.920Z,26.12
2017-03-31T12:20:15.961Z,25.98
2017-03-31T12:21:16.005Z,26.12
2017-03-31T12:22:16.056Z,26.05
2017-03-31T12:23:16.102Z,26.11
2017-03-31T12:24:16.155Z,26.02
2017-03-31T12:25:16.197Z,26.01
2017-03-31T12:26:16.549Z,26.05
2017-03-31T12:27:16.283Z,26.08
2017-03-31T12:28:16.336Z,26.05
2017-03-31T12:29:16.382Z,26.08
2017-03-31T12:30:16.423Z,25.99
2017-03-31T12:31:16.471Z,25.99
2017-03-31T12:32:16.517Z,25.9
2017-03-31T12:33:16.564Z,25.97
2017-03-31T12:34:16.605Z,25.82
2017-03-31T12:35:16.652Z,25.93
2017-03-31T12:36:16.699Z,25.97
2017-03-31T12:37:17.056Z,25.87
2017-03-31T12:38:16.789Z,25.98
2017-03-31T12:39:16.833Z,25.97
2017-03-31T12:40:16.882Z,25.87
2017-03-31T12:41:17.230Z,26.05
2017-03-31T12:42:16.975Z,26.05
2017-03-31T12:43:17.019Z,25.9
2017-03-31T12:44:17.064Z,25.94
2017-03-31T12:45:17.413Z,25.86
2017-03-31T12:46:17.159Z,25.98
2017-03-31T12:47:17.206Z,25.87
2017-03-31T12:48:17.247Z,25.84
2017-03-31T12:49:17.295Z,25.84
2017-03-31T12:50:17.661Z,25.72
2017-03-31T12:51:17.385Z,25.74
2017-03-31T12:52:17.734Z,25.65
2017-03-31T12:53:17.477Z,25.74
2017-03-31T12:54:17.525Z,25.69
2017-03-31T12:55:17.572Z,25.65
2017-03-31T12:56:17.612Z,25.71